This is the latest recevied weather packets stored in our database for station/object YO4CIL-MG. If no packets are shown the sender has not sent any weather packets the latest 10 day(s).
| Time | Temp. | Humidity | Pressure | Rain* | Wind** | Luminosity | Snow |
|---|---|---|---|---|---|---|---|
| 1777676721 | 4.44° C | 68% | 1024.4 hPa | - | - | - | - |
| 1777676121 | 4.44° C | 68% | 1024.5 hPa | - | - | - | - |
| 1777675521 | 4.44° C | 68% | 1024.7 hPa | - | - | - | - |
| 1777674920 | 5° C | 67% | 1024.8 hPa | - | - | - | - |
| 1777674322 | 5° C | 68% | 1024.7 hPa | - | - | - | - |
| 1777673720 | 5° C | 67% | 1024.9 hPa | - | - | - | - |
| 1777673121 | 5° C | 67% | 1024.9 hPa | - | - | - | - |
| 1777672521 | 5.56° C | 66% | 1025 hPa | - | - | - | - |
| 1777671920 | 5.56° C | 66% | 1025 hPa | - | - | - | - |
| 1777671320 | 5.56° C | 65% | 1025.1 hPa | - | - | - | - |
| 1777670720 | 5.56° C | 65% | 1025.1 hPa | - | - | - | - |
| 1777670120 | 6.11° C | 64% | 1025.1 hPa | - | - | - | - |
| 1777669520 | 6.11° C | 65% | 1025.1 hPa | - | - | - | - |
| 1777668920 | 6.11° C | 64% | 1025.1 hPa | - | - | - | - |
| 1777668321 | 6.67° C | 64% | 1025.1 hPa | - | - | - | - |
| 1777667720 | 6.67° C | 66% | 1024.9 hPa | - | - | - | - |
| 1777667120 | 7.22° C | 64% | 1024.9 hPa | - | - | - | - |
| 1777666520 | 7.22° C | 64% | 1025.1 hPa | - | - | - | - |
| 1777665920 | 7.78° C | 63% | 1025 hPa | - | - | - | - |
| 1777665320 | 8.33° C | 59% | 1025 hPa | - | - | - | - |
| 1777664720 | 8.33° C | 59% | 1024.9 hPa | - | - | - | - |
| 1777664120 | 8.89° C | 58% | 1024.9 hPa | - | - | - | - |
| 1777663520 | 8.89° C | 60% | 1024.8 hPa | - | - | - | - |
| 1777662920 | 9.44° C | 58% | 1025 hPa | - | - | - | - |
| 1777662320 | 9.44° C | 56% | 1024.9 hPa | - | - | - | - |
* Rain since midnight (hover to see other rain measurements)
** Current wind speed in m/s (hover to see current wind gust speed)